地図

経路データ

SID SEASON NUMBER BASIN SUBBASIN NAME ISO_TIME NATURE LAT LON WMO_WIND WMO_PRES WMO_AGENCY TRACK_TYPE DIST2LAND LANDFALL IFLAG USA_AGENCY USA_ATCF_ID USA_LAT USA_LON USA_RECORD USA_STATUS USA_WIND USA_PRES USA_SSHS USA_R34_NE USA_R34_SE USA_R34_SW USA_R34_NW USA_R50_NE USA_R50_SE USA_R50_SW USA_R50_NW USA_R64_NE USA_R64_SE USA_R64_SW USA_R64_NW USA_POCI USA_ROCI USA_RMW USA_EYE TOKYO_LAT TOKYO_LON TOKYO_GRADE TOKYO_WIND TOKYO_PRES TOKYO_R50_DIR TOKYO_R50_LONG TOKYO_R50_SHORT TOKYO_R30_DIR TOKYO_R30_LONG TOKYO_R30_SHORT TOKYO_LAND CMA_LAT CMA_LON CMA_CAT CMA_WIND CMA_PRES HKO_LAT HKO_LON HKO_CAT HKO_WIND HKO_PRES NEWDELHI_LAT NEWDELHI_LON NEWDELHI_GRADE NEWDELHI_WIND NEWDELHI_PRES NEWDELHI_CI NEWDELHI_DP NEWDELHI_POCI REUNION_LAT REUNION_LON REUNION_TYPE REUNION_WIND REUNION_PRES REUNION_TNUM REUNION_CI REUNION_RMW REUNION_R34_NE REUNION_R34_SE REUNION_R34_SW REUNION_R34_NW REUNION_R50_NE REUNION_R50_SE REUNION_R50_SW REUNION_R50_NW REUNION_R64_NE REUNION_R64_SE REUNION_R64_SW REUNION_R64_NW BOM_LAT BOM_LON BOM_TYPE BOM_WIND BOM_PRES BOM_TNUM BOM_CI BOM_RMW BOM_R34_NE BOM_R34_SE BOM_R34_SW BOM_R34_NW BOM_R50_NE BOM_R50_SE BOM_R50_SW BOM_R50_NW BOM_R64_NE BOM_R64_SE BOM_R64_SW BOM_R64_NW BOM_ROCI BOM_POCI BOM_EYE BOM_POS_METHOD BOM_PRES_METHOD NADI_LAT NADI_LON NADI_CAT NADI_WIND NADI_PRES WELLINGTON_LAT WELLINGTON_LON WELLINGTON_WIND WELLINGTON_PRES DS824_LAT DS824_LON DS824_STAGE DS824_WIND DS824_PRES TD9636_LAT TD9636_LON TD9636_STAGE TD9636_WIND TD9636_PRES TD9635_LAT TD9635_LON TD9635_WIND TD9635_PRES TD9635_ROCI NEUMANN_LAT NEUMANN_LON NEUMANN_CLASS NEUMANN_WIND NEUMANN_PRES MLC_LAT MLC_LON MLC_CLASS MLC_WIND MLC_PRES USA_GUST BOM_GUST BOM_GUST_PER REUNION_GUST REUNION_GUST_PER USA_SEAHGT USA_SEARAD_NE USA_SEARAD_SE USA_SEARAD_SW USA_SEARAD_NW STORM_SPEED STORM_DIR
1992262N10262 1992 88 EP MM TINA 1992-09-17 12:00:00 TS 10.4000 -98.5000 25 1010 hurdat_epa main 617 617 O_____________ hurdat_epa EP221992 10.4000 -98.5000 TD 25 1010 -1 6 279
1992262N10262 1992 88 EP MM TINA 1992-09-17 15:00:00 TS 10.4476 -98.8100 main 629 618 P_____________ EP221992 10.4476 -98.8100 TD 25 1010 -1 6 280
1992262N10262 1992 88 EP MM TINA 1992-09-17 18:00:00 TS 10.5000 -99.1000 25 1010 hurdat_epa main 631 626 O_____________ hurdat_epa EP221992 10.5000 -99.1000 TD 25 1010 -1 6 282
1992262N10262 1992 88 EP MM TINA 1992-09-17 21:00:00 TS 10.5575 -99.3575 main 628 628 P_____________ EP221992 10.5575 -99.3575 TD 25 1010 -1 5 282
1992262N10262 1992 88 EP MM TINA 1992-09-18 00:00:00 TS 10.6000 -99.6000 25 1010 hurdat_epa main 635 635 O_____________ hurdat_epa EP221992 10.6000 -99.6000 TD 25 1010 -1 5 275
1992262N10262 1992 88 EP MM TINA 1992-09-18 03:00:00 TS 10.6000 -99.8500 main 645 645 P_____________ EP221992 10.6000 -99.8500 TD 27 1009 -1 5 270
1992262N10262 1992 88 EP MM TINA 1992-09-18 06:00:00 TS 10.6000 -100.100 30 1009 hurdat_epa main 653 653 O_____________ hurdat_epa EP221992 10.6000 -100.100 TD 30 1009 -1 5 275
1992262N10262 1992 88 EP MM TINA 1992-09-18 09:00:00 TS 10.6424 -100.335 main 662 656 P_____________ EP221992 10.6424 -100.335 TD 30 1008 -1 5 282
1992262N10262 1992 88 EP MM TINA 1992-09-18 12:00:00 TS 10.7000 -100.600 30 1007 hurdat_epa main 663 663 O_____________ hurdat_epa EP221992 10.7000 -100.600 TD 30 1007 -1 6 280
1992262N10262 1992 88 EP MM TINA 1992-09-18 15:00:00 TS 10.7500 -100.935 main 664 664 P_____________ EP221992 10.7500 -100.935 TD 35 1005 0 7 278
1992262N10262 1992 88 EP MM TINA 1992-09-18 18:00:00 TS 10.8000 -101.300 40 1003 hurdat_epa main 681 681 O_____________ hurdat_epa EP221992 10.8000 -101.300 TS 40 1003 0 7 279
1992262N10262 1992 88 EP MM TINA 1992-09-18 21:00:00 TS 10.8575 -101.657 main 684 684 P_____________ EP221992 10.8575 -101.657 TS 42 1001 0 7 278
1992262N10262 1992 88 EP MM TINA 1992-09-19 00:00:00 TS 10.9000 -102.000 45 999 hurdat_epa main 695 695 O_____________ hurdat_epa EP221992 10.9000 -102.000 TS 45 999 0 6 274
1992262N10262 1992 88 EP MM TINA 1992-09-19 03:00:00 TS 10.9074 -102.308 main 707 707 P_____________ EP221992 10.9074 -102.308 TS 47 997 0 6 270
1992262N10262 1992 88 EP MM TINA 1992-09-19 06:00:00 TS 10.9000 -102.600 50 996 hurdat_epa main 720 720 O_____________ hurdat_epa EP221992 10.9000 -102.600 TS 50 996 0 6 269
1992262N10262 1992 88 EP MM TINA 1992-09-19 09:00:00 TS 10.9000 -102.900 main 735 735 P_____________ EP221992 10.9000 -102.900 TS 52 995 0 6 270
1992262N10262 1992 88 EP MM TINA 1992-09-19 12:00:00 TS 10.9000 -103.200 55 995 hurdat_epa main 751 751 O_____________ hurdat_epa EP221992 10.9000 -103.200 TS 55 995 0 6 270
1992262N10262 1992 88 EP MM TINA 1992-09-19 15:00:00 TS 10.9000 -103.500 main 761 761 P_____________ EP221992 10.9000 -103.500 TS 55 994 0 6 270
1992262N10262 1992 88 EP MM TINA 1992-09-19 18:00:00 TS 10.9000 -103.800 55 994 hurdat_epa main 773 773 O_____________ hurdat_epa EP221992 10.9000 -103.800 TS 55 994 0 6 269
1992262N10262 1992 88 EP MM TINA 1992-09-19 21:00:00 TS 10.8924 -104.093 main 786 786 P_____________ EP221992 10.8924 -104.093 TS 55 994 0 6 270
1992262N10262 1992 88 EP MM TINA 1992-09-20 00:00:00 TS 10.9000 -104.400 55 994 hurdat_epa main 800 800 O_____________ hurdat_epa EP221992 10.9000 -104.400 TS 55 994 0 6 274
1992262N10262 1992 88 EP MM TINA 1992-09-20 03:00:00 TS 10.9350 -104.735 main 814 814 P_____________ EP221992 10.9350 -104.735 TS 55 994 0 7 278
1992262N10262 1992 88 EP MM TINA 1992-09-20 06:00:00 TS 11.0000 -105.100 55 994 hurdat_epa main 826 826 O_____________ hurdat_epa EP221992 11.0000 -105.100 TS 55 994 0 8 282
1992262N10262 1992 88 EP MM TINA 1992-09-20 09:00:00 TS 11.0926 -105.515 main 832 828 P_____________ EP221992 11.0926 -105.515 TS 55 993 0 8 284
1992262N10262 1992 88 EP MM TINA 1992-09-20 12:00:00 TS 11.2000 -105.900 55 993 hurdat_epa main 835 831 O_____________ hurdat_epa EP221992 11.2000 -105.900 TS 55 993 0 7 288
1992262N10262 1992 88 EP MM TINA 1992-09-20 15:00:00 TS 11.3074 -106.188 main 835 828 P_____________ EP221992 11.3074 -106.188 TS 57 991 0 5 292
1992262N10262 1992 88 EP MM TINA 1992-09-20 18:00:00 TS 11.4000 -106.400 60 990 hurdat_epa main 832 832 O_____________ hurdat_epa EP221992 11.4000 -106.400 TS 60 990 0 4 291
1992262N10262 1992 88 EP MM TINA 1992-09-20 21:00:00 TS 11.4500 -106.565 main 841 830 P_____________ EP221992 11.4500 -106.565 TS 65 986 1 3 289
1992262N10262 1992 88 EP MM TINA 1992-09-21 00:00:00 TS 11.5000 -106.700 70 983 hurdat_epa main 835 829 O_____________ hurdat_epa EP221992 11.5000 -106.700 HU 70 983 1 3 298
1992262N10262 1992 88 EP MM TINA 1992-09-21 03:00:00 TS 11.6000 -106.850 main 829 824 P_____________ EP221992 11.6000 -106.850 HU 72 981 1 4 304
1992262N10262 1992 88 EP MM TINA 1992-09-21 06:00:00 TS 11.7000 -107.000 75 979 hurdat_epa main 828 823 O_____________ hurdat_epa EP221992 11.7000 -107.000 HU 75 979 1 3 298
1992262N10262 1992 88 EP MM TINA 1992-09-21 09:00:00 TS 11.7575 -107.158 main 828 828 P_____________ EP221992 11.7575 -107.158 HU 75 979 1 3 289
1992262N10262 1992 88 EP MM TINA 1992-09-21 12:00:00 TS 11.8000 -107.300 75 979 hurdat_epa main 834 834 O_____________ hurdat_epa EP221992 11.8000 -107.300 HU 75 979 1 3 289
1992262N10262 1992 88 EP MM TINA 1992-09-21 15:00:00 TS 11.8425 -107.408 main 839 829 P_____________ EP221992 11.8425 -107.408 HU 72 983 1 2 297
1992262N10262 1992 88 EP MM TINA 1992-09-21 18:00:00 TS 11.9000 -107.500 70 988 hurdat_epa main 835 831 O_____________ hurdat_epa EP221992 11.9000 -107.500 HU 70 988 1 2 309
1992262N10262 1992 88 EP MM TINA 1992-09-21 21:00:00 TS 11.9925 -107.600 main 831 827 P_____________ EP221992 11.9925 -107.600 HU 65 989 1 3 316
1992262N10262 1992 88 EP MM TINA 1992-09-22 00:00:00 TS 12.1000 -107.700 60 990 hurdat_epa main 827 818 O_____________ hurdat_epa EP221992 12.1000 -107.700 TS 60 990 0 3 320
1992262N10262 1992 88 EP MM TINA 1992-09-22 03:00:00 TS 12.2075 -107.785 main 823 814 P_____________ EP221992 12.2075 -107.785 TS 57 991 0 3 316
1992262N10262 1992 88 EP MM TINA 1992-09-22 06:00:00 TS 12.3000 -107.900 55 992 hurdat_epa main 820 817 O_____________ hurdat_epa EP221992 12.3000 -107.900 TS 55 992 0 3 300
1992262N10262 1992 88 EP MM TINA 1992-09-22 09:00:00 TS 12.3725 -108.077 main 824 824 P_____________ EP221992 12.3725 -108.077 TS 55 994 0 4 284
1992262N10262 1992 88 EP MM TINA 1992-09-22 12:00:00 TS 12.4000 -108.300 55 997 hurdat_epa main 837 837 O_____________ hurdat_epa EP221992 12.4000 -108.300 TS 55 997 0 5 268
1992262N10262 1992 88 EP MM TINA 1992-09-22 15:00:00 TS 12.3575 -108.558 main 857 857 P_____________ EP221992 12.3575 -108.558 TS 55 997 0 5 258
1992262N10262 1992 88 EP MM TINA 1992-09-22 18:00:00 TS 12.3000 -108.800 55 998 hurdat_epa main 879 879 O_____________ hurdat_epa EP221992 12.3000 -108.800 TS 55 998 0 4 261
1992262N10262 1992 88 EP MM TINA 1992-09-22 21:00:00 TS 12.2925 -108.965 main 893 893 P_____________ EP221992 12.2925 -108.965 TS 57 994 0 3 270
1992262N10262 1992 88 EP MM TINA 1992-09-23 00:00:00 TS 12.3000 -109.100 60 990 hurdat_epa main 898 898 O_____________ hurdat_epa EP221992 12.3000 -109.100 TS 60 990 0 3 272
1992262N10262 1992 88 EP MM TINA 1992-09-23 03:00:00 TS 12.3000 -109.250 main 910 910 P_____________ EP221992 12.3000 -109.250 TS 62 989 0 3 270
1992262N10262 1992 88 EP MM TINA 1992-09-23 06:00:00 TS 12.3000 -109.400 65 988 hurdat_epa main 915 915 O_____________ hurdat_epa EP221992 12.3000 -109.400 HU 65 988 1 3 269
1992262N10262 1992 88 EP MM TINA 1992-09-23 09:00:00 TS 12.2925 -109.558 main 927 927 P_____________ EP221992 12.2925 -109.558 HU 65 987 1 3 270
1992262N10262 1992 88 EP MM TINA 1992-09-23 12:00:00 TS 12.3000 -109.700 65 986 hurdat_epa main 933 933 O_____________ hurdat_epa EP221992 12.3000 -109.700 HU 65 986 1 3 280
1992262N10262 1992 88 EP MM TINA 1992-09-23 15:00:00 TS 12.3350 -109.815 main 939 930 P_____________ EP221992 12.3350 -109.815 HU 67 984 1 2 297
1992262N10262 1992 88 EP MM TINA 1992-09-23 18:00:00 TS 12.4000 -109.900 70 983 hurdat_epa main 936 927 O_____________ hurdat_epa EP221992 12.4000 -109.900 HU 70 983 1 2 316
1992262N10262 1992 88 EP MM TINA 1992-09-23 21:00:00 TS 12.4925 -109.972 main 933 924 P_____________ EP221992 12.4925 -109.972 HU 72 982 1 2 333
1992262N10262 1992 88 EP MM TINA 1992-09-24 00:00:00 TS 12.6000 -110.000 75 981 hurdat_epa main 924 915 O_____________ hurdat_epa EP221992 12.6000 -110.000 HU 75 981 1 2 8
1992262N10262 1992 88 EP MM TINA 1992-09-24 03:00:00 TS 12.6925 -109.973 main 915 900 P_____________ EP221992 12.6925 -109.973 HU 72 981 1 2 27
1992262N10262 1992 88 EP MM TINA 1992-09-24 06:00:00 TS 12.8000 -109.900 70 982 hurdat_epa main 900 884 O_____________ hurdat_epa EP221992 12.8000 -109.900 HU 70 982 1 3 34
1992262N10262 1992 88 EP MM TINA 1992-09-24 09:00:00 TS 12.9350 -109.808 main 884 860 P_____________ EP221992 12.9350 -109.808 HU 70 983 1 4 33
1992262N10262 1992 88 EP MM TINA 1992-09-24 12:00:00 TS 13.1000 -109.700 70 985 hurdat_epa main 860 835 O_____________ hurdat_epa EP221992 13.1000 -109.700 HU 70 985 1 4 27
1992262N10262 1992 88 EP MM TINA 1992-09-24 15:00:00 TS 13.2850 -109.622 main 835 811 P_____________ EP221992 13.2850 -109.622 HU 67 986 1 4 26
1992262N10262 1992 88 EP MM TINA 1992-09-24 18:00:00 TS 13.5000 -109.500 65 987 hurdat_epa main 811 780 O_____________ hurdat_epa EP221992 13.5000 -109.500 HU 65 987 1 6 38
1992262N10262 1992 88 EP MM TINA 1992-09-24 21:00:00 TS 13.7276 -109.265 main 780 734 P_____________ EP221992 13.7276 -109.265 HU 62 987 0 7 44
1992262N10262 1992 88 EP MM TINA 1992-09-25 00:00:00 TS 14.0000 -109.000 60 988 hurdat_epa main 734 694 O_____________ hurdat_epa EP221992 14.0000 -109.000 TS 60 988 0 8 38
1992262N10262 1992 88 EP MM TINA 1992-09-25 03:00:00 TS 14.3350 -108.785 main 694 645 P_____________ EP221992 14.3350 -108.785 TS 57 988 0 8 29
1992262N10262 1992 88 EP MM TINA 1992-09-25 06:00:00 TS 14.7000 -108.600 55 989 hurdat_epa main 645 612 O_____________ hurdat_epa EP221992 14.7000 -108.600 TS 55 989 0 8 24
1992262N10262 1992 88 EP MM TINA 1992-09-25 09:00:00 TS 15.0424 -108.457 main 612 564 P_____________ EP221992 15.0424 -108.457 TS 55 989 0 8 23
1992262N10262 1992 88 EP MM TINA 1992-09-25 12:00:00 TS 15.4000 -108.300 55 990 hurdat_epa main 564 516 O_____________ hurdat_epa EP221992 15.4000 -108.300 TS 55 990 0 9 28
1992262N10262 1992 88 EP MM TINA 1992-09-25 15:00:00 TS 15.8001 -108.043 main 509 462 P_____________ EP221992 15.8001 -108.043 TS 55 991 0 9 31
1992262N10262 1992 88 EP MM TINA 1992-09-25 18:00:00 TS 16.2000 -107.800 55 992 hurdat_epa main 462 430 O_____________ hurdat_epa EP221992 16.2000 -107.800 TS 55 992 0 8 25
1992262N10262 1992 88 EP MM TINA 1992-09-25 21:00:00 TS 16.5650 -107.670 main 422 391 P_____________ EP221992 16.5650 -107.670 TS 55 993 0 7 15
1992262N10262 1992 88 EP MM TINA 1992-09-26 00:00:00 TS 16.9000 -107.600 55 995 hurdat_epa main 391 360 O_____________ hurdat_epa EP221992 16.9000 -107.600 TS 55 995 0 7 12
1992262N10262 1992 88 EP MM TINA 1992-09-26 03:00:00 TS 17.2300 -107.520 main 360 338 P_____________ EP221992 17.2300 -107.520 TS 55 995 0 6 9
1992262N10262 1992 88 EP MM TINA 1992-09-26 06:00:00 TS 17.5000 -107.500 55 995 hurdat_epa main 338 329 O_____________ hurdat_epa EP221992 17.5000 -107.500 TS 55 995 0 4 353
1992262N10262 1992 88 EP MM TINA 1992-09-26 09:00:00 TS 17.6725 -107.577 main 329 329 P_____________ EP221992 17.6725 -107.577 TS 55 994 0 4 328
1992262N10262 1992 88 EP MM TINA 1992-09-26 12:00:00 TS 17.8000 -107.700 55 993 hurdat_epa main 330 323 O_____________ hurdat_epa EP221992 17.8000 -107.700 TS 55 993 0 3 325
1992262N10262 1992 88 EP MM TINA 1992-09-26 15:00:00 TS 17.9500 -107.785 main 331 324 P_____________ EP221992 17.9500 -107.785 TS 57 991 0 4 328
1992262N10262 1992 88 EP MM TINA 1992-09-26 18:00:00 TS 18.1000 -107.900 60 989 hurdat_epa main 326 326 O_____________ hurdat_epa EP221992 18.1000 -107.900 TS 60 989 0 4 318
1992262N10262 1992 88 EP MM TINA 1992-09-26 21:00:00 TS 18.2725 -108.092 main 332 332 P_____________ EP221992 18.2725 -108.092 TS 65 986 1 5 308
1992262N10262 1992 88 EP MM TINA 1992-09-27 00:00:00 TS 18.4000 -108.300 70 984 hurdat_epa main 344 344 O_____________ hurdat_epa EP221992 18.4000 -108.300 HU 70 984 1 4 294
1992262N10262 1992 88 EP MM TINA 1992-09-27 03:00:00 TS 18.4300 -108.458 main 362 362 P_____________ EP221992 18.4300 -108.458 HU 75 980 1 3 270
1992262N10262 1992 88 EP MM TINA 1992-09-27 06:00:00 TS 18.4000 -108.600 80 977 hurdat_epa main 371 371 O_____________ hurdat_epa EP221992 18.4000 -108.600 HU 80 977 1 3 257
1992262N10262 1992 88 EP MM TINA 1992-09-27 09:00:00 TS 18.3650 -108.742 main 380 380 P_____________ EP221992 18.3650 -108.742 HU 85 974 2 3 251
1992262N10262 1992 88 EP MM TINA 1992-09-27 12:00:00 TS 18.3000 -108.900 90 972 hurdat_epa main 404 404 O_____________ hurdat_epa EP221992 18.3000 -108.900 HU 90 972 2 4 246
1992262N10262 1992 88 EP MM TINA 1992-09-27 15:00:00 TS 18.2150 -109.100 main 428 428 P_____________ EP221992 18.2150 -109.100 HU 92 969 2 4 242
1992262N10262 1992 88 EP MM TINA 1992-09-27 18:00:00 TS 18.1000 -109.300 95 967 hurdat_epa main 452 452 O_____________ hurdat_epa EP221992 18.1000 -109.300 HU 95 967 2 4 232
1992262N10262 1992 88 EP MM TINA 1992-09-27 21:00:00 TS 17.9499 -109.450 main 472 472 P_____________ EP221992 17.9499 -109.450 HU 97 965 3 4 223
1992262N10262 1992 88 EP MM TINA 1992-09-28 00:00:00 TS 17.8000 -109.600 100 963 hurdat_epa main 496 496 O_____________ hurdat_epa EP221992 17.8000 -109.600 HU 100 963 3 4 232
1992262N10262 1992 88 EP MM TINA 1992-09-28 03:00:00 TS 17.7000 -109.785 main 520 520 P_____________ EP221992 17.7000 -109.785 HU 100 961 3 4 242
1992262N10262 1992 88 EP MM TINA 1992-09-28 06:00:00 TS 17.6000 -110.000 100 960 hurdat_epa main 544 544 O_____________ hurdat_epa EP221992 17.6000 -110.000 HU 100 960 3 5 239
1992262N10262 1992 88 EP MM TINA 1992-09-28 09:00:00 TS 17.4499 -110.228 main 574 574 P_____________ EP221992 17.4499 -110.228 HU 102 958 3 6 238
1992262N10262 1992 88 EP MM TINA 1992-09-28 12:00:00 TS 17.3000 -110.500 105 957 hurdat_epa main 607 607 O_____________ hurdat_epa EP221992 17.3000 -110.500 HU 105 957 3 6 245
1992262N10262 1992 88 EP MM TINA 1992-09-28 15:00:00 TS 17.1850 -110.835 main 640 640 P_____________ EP221992 17.1850 -110.835 HU 107 956 3 7 253
1992262N10262 1992 88 EP MM TINA 1992-09-28 18:00:00 TS 17.1000 -111.200 110 955 hurdat_epa main 660 660 O_____________ hurdat_epa EP221992 17.1000 -111.200 HU 110 955 3 7 258
1992262N10262 1992 88 EP MM TINA 1992-09-28 21:00:00 TS 17.0424 -111.542 main 678 678 P_____________ EP221992 17.0424 -111.542 HU 110 954 3 7 261
1992262N10262 1992 88 EP MM TINA 1992-09-29 00:00:00 TS 17.0000 -111.900 110 953 hurdat_epa main 689 689 O_____________ hurdat_epa EP221992 17.0000 -111.900 HU 110 953 3 7 261
1992262N10262 1992 88 EP MM TINA 1992-09-29 03:00:00 TS 16.9349 -112.285 main 712 712 P_____________ EP221992 16.9349 -112.285 HU 110 952 3 8 263
1992262N10262 1992 88 EP MM TINA 1992-09-29 06:00:00 TS 16.9000 -112.700 110 951 hurdat_epa main 727 727 O_____________ hurdat_epa EP221992 16.9000 -112.700 HU 110 951 3 8 271
1992262N10262 1992 88 EP MM TINA 1992-09-29 09:00:00 TS 16.9424 -113.135 main 745 739 P_____________ EP221992 16.9424 -113.135 HU 112 950 3 9 277
1992262N10262 1992 88 EP MM TINA 1992-09-29 12:00:00 TS 17.0000 -113.600 115 950 hurdat_epa main 759 759 O_____________ hurdat_epa EP221992 17.0000 -113.600 HU 115 950 4 9 274
1992262N10262 1992 88 EP MM TINA 1992-09-29 15:00:00 TS 17.0000 -114.100 main 786 786 P_____________ EP221992 17.0000 -114.100 HU 115 948 4 10 270
1992262N10262 1992 88 EP MM TINA 1992-09-29 18:00:00 TS 17.0000 -114.600 115 947 hurdat_epa main 816 816 O_____________ hurdat_epa EP221992 17.0000 -114.600 HU 115 947 4 9 273
1992262N10262 1992 88 EP MM TINA 1992-09-29 21:00:00 TS 17.0422 -115.042 main 841 839 P_____________ EP221992 17.0422 -115.042 HU 117 945 4 9 277
1992262N10262 1992 88 EP MM TINA 1992-09-30 00:00:00 TS 17.1000 -115.500 120 944 hurdat_epa main 866 866 O_____________ hurdat_epa EP221992 17.1000 -115.500 HU 120 944 4 10 276
1992262N10262 1992 88 EP MM TINA 1992-09-30 03:00:00 TS 17.1500 -116.035 main 901 901 P_____________ EP221992 17.1500 -116.035 HU 122 941 4 11 275
1992262N10262 1992 88 EP MM TINA 1992-09-30 06:00:00 TS 17.2000 -116.600 125 938 hurdat_epa main 938 938 O_____________ hurdat_epa EP221992 17.2000 -116.600 HU 125 938 4 11 275
1992262N10262 1992 88 EP MM TINA 1992-09-30 09:00:00 TS 17.2499 -117.150 main 985 978 P_____________ EP221992 17.2499 -117.150 HU 127 935 4 11 275
1992262N10262 1992 88 EP MM TINA 1992-09-30 12:00:00 TS 17.3000 -117.700 130 932 hurdat_epa main 1010 1010 O_____________ hurdat_epa EP221992 17.3000 -117.700 HU 130 932 4 10 276
1992262N10262 1992 88 EP MM TINA 1992-09-30 15:00:00 TS 17.3573 -118.242 main 1032 1032 P_____________ EP221992 17.3573 -118.242 HU 130 932 4 11 275
1992262N10262 1992 88 EP MM TINA 1992-09-30 18:00:00 TS 17.4000 -118.800 130 933 hurdat_epa main 1071 1071 O_____________ hurdat_epa EP221992 17.4000 -118.800 HU 130 933 4 11 272
1992262N10262 1992 88 EP MM TINA 1992-09-30 21:00:00 TS 17.4000 -119.400 main 1113 1113 P_____________ EP221992 17.4000 -119.400 HU 130 933 4 11 270
1992262N10262 1992 88 EP MM TINA 1992-10-01 00:00:00 TS 17.4000 -120.000 130 933 hurdat_epa main 1156 1156 O_____________ hurdat_epa EP221992 17.4000 -120.000 HU 130 933 4 11 273
1992262N10262 1992 88 EP MM TINA 1992-10-01 03:00:00 TS 17.4573 -120.565 main 1192 1192 P_____________ EP221992 17.4573 -120.565 HU 130 933 4 11 275
1992262N10262 1992 88 EP MM TINA 1992-10-01 06:00:00 TS 17.5000 -121.100 130 934 hurdat_epa main 1231 1231 O_____________ hurdat_epa EP221992 17.5000 -121.100 HU 130 934 4 10 270
1992262N10262 1992 88 EP MM TINA 1992-10-01 09:00:00 TS 17.4499 -121.615 main 1277 1277 P_____________ EP221992 17.4499 -121.615 HU 127 934 4 10 264
1992262N10262 1992 88 EP MM TINA 1992-10-01 12:00:00 TS 17.4000 -122.100 125 935 hurdat_epa main 1317 1317 O_____________ hurdat_epa EP221992 17.4000 -122.100 HU 125 935 4 9 270
1992262N10262 1992 88 EP MM TINA 1992-10-01 15:00:00 TS 17.4424 -122.572 main 1358 1351 P_____________ EP221992 17.4424 -122.572 HU 122 938 4 9 277
1992262N10262 1992 88 EP MM TINA 1992-10-01 18:00:00 TS 17.5000 -123.000 120 941 hurdat_epa main 1384 1384 O_____________ hurdat_epa EP221992 17.5000 -123.000 HU 120 941 4 8 274
1992262N10262 1992 88 EP MM TINA 1992-10-01 21:00:00 TS 17.4924 -123.373 main 1418 1418 P_____________ EP221992 17.4924 -123.373 HU 117 944 4 7 270
1992262N10262 1992 88 EP MM TINA 1992-10-02 00:00:00 TS 17.5000 -123.700 115 947 hurdat_epa main 1443 1443 O_____________ hurdat_epa EP221992 17.5000 -123.700 HU 115 947 4 6 279
1992262N10262 1992 88 EP MM TINA 1992-10-02 03:00:00 TS 17.5849 -124.007 main 1456 1456 P_____________ EP221992 17.5849 -124.007 HU 110 950 3 6 289
1992262N10262 1992 88 EP MM TINA 1992-10-02 06:00:00 TS 17.7000 -124.300 105 953 hurdat_epa main 1468 1468 O_____________ hurdat_epa EP221992 17.7000 -124.300 HU 105 953 3 6 291
1992262N10262 1992 88 EP MM TINA 1992-10-02 09:00:00 TS 17.8000 -124.608 main 1479 1479 P_____________ EP221992 17.8000 -124.608 HU 102 956 3 6 289
1992262N10262 1992 88 EP MM TINA 1992-10-02 12:00:00 TS 17.9000 -124.900 100 960 hurdat_epa main 1491 1491 O_____________ hurdat_epa EP221992 17.9000 -124.900 HU 100 960 3 6 289
1992262N10262 1992 88 EP MM TINA 1992-10-02 15:00:00 TS 17.9850 -125.165 main 1504 1503 P_____________ EP221992 17.9850 -125.165 HU 97 963 3 5 293
1992262N10262 1992 88 EP MM TINA 1992-10-02 18:00:00 TS 18.1000 -125.400 95 966 hurdat_epa main 1510 1508 O_____________ hurdat_epa EP221992 18.1000 -125.400 HU 95 966 2 5 306
1992262N10262 1992 88 EP MM TINA 1992-10-02 21:00:00 TS 18.2925 -125.615 main 1508 1507 P_____________ EP221992 18.2925 -125.615 HU 92 969 2 6 317
1992262N10262 1992 88 EP MM TINA 1992-10-03 00:00:00 TS 18.5000 -125.800 90 972 hurdat_epa main 1507 1506 O_____________ hurdat_epa EP221992 18.5000 -125.800 HU 90 972 2 5 317
1992262N10262 1992 88 EP MM TINA 1992-10-03 03:00:00 TS 18.6425 -125.958 main 1514 1506 P_____________ EP221992 18.6425 -125.958 HU 87 973 2 4 317
1992262N10262 1992 88 EP MM TINA 1992-10-03 06:00:00 TS 18.8000 -126.100 85 975 hurdat_epa main 1506 1498 O_____________ hurdat_epa EP221992 18.8000 -126.100 HU 85 975 2 5 327
1992262N10262 1992 88 EP MM TINA 1992-10-03 09:00:00 TS 19.0424 -126.235 main 1499 1491 P_____________ EP221992 19.0424 -126.235 HU 82 976 1 6 330
1992262N10262 1992 88 EP MM TINA 1992-10-03 12:00:00 TS 19.3000 -126.400 80 978 hurdat_epa main 1492 1492 O_____________ hurdat_epa EP221992 19.3000 -126.400 HU 80 978 1 6 320
1992262N10262 1992 88 EP MM TINA 1992-10-03 15:00:00 TS 19.5000 -126.635 main 1493 1493 P_____________ EP221992 19.5000 -126.635 HU 77 979 1 6 310
1992262N10262 1992 88 EP MM TINA 1992-10-03 18:00:00 TS 19.7000 -126.900 75 981 hurdat_epa main 1503 1503 O_____________ hurdat_epa EP221992 19.7000 -126.900 HU 75 981 1 7 313
1992262N10262 1992 88 EP MM TINA 1992-10-03 21:00:00 TS 19.9500 -127.150 main 1506 1507 P_____________ EP221992 19.9500 -127.150 HU 72 982 1 7 317
1992262N10262 1992 88 EP MM TINA 1992-10-04 00:00:00 TS 20.2000 -127.400 70 984 hurdat_epa main 1511 1511 O_____________ hurdat_epa EP221992 20.2000 -127.400 HU 70 984 1 7 314
1992262N10262 1992 88 EP MM TINA 1992-10-04 03:00:00 TS 20.4075 -127.650 main 1523 1517 P_____________ EP221992 20.4075 -127.650 HU 67 985 1 6 311
1992262N10262 1992 88 EP MM TINA 1992-10-04 06:00:00 TS 20.6000 -127.900 65 987 hurdat_epa main 1528 1528 O_____________ hurdat_epa EP221992 20.6000 -127.900 HU 65 987 1 6 310
1992262N10262 1992 88 EP MM TINA 1992-10-04 09:00:00 TS 20.8000 -128.150 main 1542 1536 P_____________ EP221992 20.8000 -128.150 HU 65 988 1 6 311
1992262N10262 1992 88 EP MM TINA 1992-10-04 12:00:00 TS 21.0000 -128.400 65 990 hurdat_epa main 1547 1547 O_____________ hurdat_epa EP221992 21.0000 -128.400 HU 65 990 1 6 311
1992262N10262 1992 88 EP MM TINA 1992-10-04 15:00:00 TS 21.2075 -128.650 main 1563 1557 P_____________ EP221992 21.2075 -128.650 HU 62 991 0 6 311
1992262N10262 1992 88 EP MM TINA 1992-10-04 18:00:00 TS 21.4000 -128.900 60 992 hurdat_epa main 1569 1569 O_____________ hurdat_epa EP221992 21.4000 -128.900 TS 60 992 0 6 307
1992262N10262 1992 88 EP MM TINA 1992-10-04 21:00:00 TS 21.5575 -129.158 main 1586 1586 P_____________ EP221992 21.5575 -129.158 TS 57 993 0 6 303
1992262N10262 1992 88 EP MM TINA 1992-10-05 00:00:00 TS 21.7000 -129.400 55 994 hurdat_epa main 1599 1599 O_____________ hurdat_epa EP221992 21.7000 -129.400 TS 55 994 0 5 305
1992262N10262 1992 88 EP MM TINA 1992-10-05 03:00:00 TS 21.8575 -129.622 main 1607 1607 P_____________ EP221992 21.8575 -129.622 TS 52 995 0 5 309
1992262N10262 1992 88 EP MM TINA 1992-10-05 06:00:00 TS 22.0000 -129.800 50 996 hurdat_epa main 1620 1620 O_____________ hurdat_epa EP221992 22.0000 -129.800 TS 50 996 0 4 314
1992262N10262 1992 88 EP MM TINA 1992-10-05 09:00:00 TS 22.1149 -129.908 main 1625 1620 P_____________ EP221992 22.1149 -129.908 TS 50 997 0 3 317
1992262N10262 1992 88 EP MM TINA 1992-10-05 12:00:00 TS 22.2000 -130.000 50 998 hurdat_epa main 1629 1629 O_____________ hurdat_epa EP221992 22.2000 -130.000 TS 50 998 0 3 303
1992262N10262 1992 88 EP MM TINA 1992-10-05 15:00:00 TS 22.2500 -130.135 main 1639 1634 P_____________ EP221992 22.2500 -130.135 TS 47 998 0 3 290
1992262N10262 1992 88 EP MM TINA 1992-10-05 18:00:00 TS 22.3000 -130.300 45 999 hurdat_epa main 1653 1650 O_____________ hurdat_epa EP221992 22.3000 -130.300 TS 45 999 0 4 293
1992262N10262 1992 88 EP MM TINA 1992-10-05 21:00:00 TS 22.3925 -130.500 main 1655 1652 P_____________ EP221992 22.3925 -130.500 TS 45 1000 0 4 298
1992262N10262 1992 88 EP MM TINA 1992-10-06 00:00:00 TS 22.5000 -130.700 45 1001 hurdat_epa main 1658 1654 O_____________ hurdat_epa EP221992 22.5000 -130.700 TS 45 1001 0 4 303
1992262N10262 1992 88 EP MM TINA 1992-10-06 03:00:00 TS 22.5999 -130.850 main 1660 1651 P_____________ EP221992 22.5999 -130.850 TS 42 1001 0 3 306
1992262N10262 1992 88 EP MM TINA 1992-10-06 06:00:00 TS 22.7000 -131.000 40 1002 hurdat_epa main 1657 1654 O_____________ hurdat_epa EP221992 22.7000 -131.000 TS 40 1002 0 4 302
1992262N10262 1992 88 EP MM TINA 1992-10-06 09:00:00 TS 22.8000 -131.200 main 1660 1657 P_____________ EP221992 22.8000 -131.200 TS 40 1002 0 4 298
1992262N10262 1992 88 EP MM TINA 1992-10-06 12:00:00 TS 22.9000 -131.400 40 1003 hurdat_epa main 1663 1661 O_____________ hurdat_epa EP221992 22.9000 -131.400 TS 40 1003 0 4 302
1992262N10262 1992 88 EP MM TINA 1992-10-06 15:00:00 TS 23.0075 -131.565 main 1667 1658 P_____________ EP221992 23.0075 -131.565 TS 37 1003 0 3 306
1992262N10262 1992 88 EP MM TINA 1992-10-06 18:00:00 TS 23.1000 -131.700 35 1004 hurdat_epa main 1664 1662 O_____________ hurdat_epa EP221992 23.1000 -131.700 TS 35 1004 0 3 305
1992262N10262 1992 88 EP MM TINA 1992-10-06 21:00:00 TS 23.1575 -131.800 main 1662 1662 P_____________ EP221992 23.1575 -131.800 TS 35 1004 0 2 299
1992262N10262 1992 88 EP MM TINA 1992-10-07 00:00:00 TS 23.2000 -131.900 35 1005 hurdat_epa main 1668 1668 O_____________ hurdat_epa EP221992 23.2000 -131.900 TS 35 1005 0 2 292
1992262N10262 1992 88 EP MM TINA 1992-10-07 03:00:00 TS 23.2500 -132.050 main 1673 1673 P_____________ EP221992 23.2500 -132.050 TS 35 1005 0 3 290
1992262N10262 1992 88 EP MM TINA 1992-10-07 06:00:00 TS 23.3000 -132.200 35 1006 hurdat_epa main 1679 1677 O_____________ hurdat_epa EP221992 23.3000 -132.200 TS 35 1006 0 3 295
1992262N10262 1992 88 EP MM TINA 1992-10-07 09:00:00 TS 23.3575 -132.300 main 1677 1677 P_____________ EP221992 23.3575 -132.300 TS 32 1006 -1 2 299
1992262N10262 1992 88 EP MM TINA 1992-10-07 12:00:00 TS 23.4000 -132.400 30 1007 hurdat_epa main 1684 1684 O_____________ hurdat_epa EP221992 23.4000 -132.400 TD 30 1007 -1 2 280
1992262N10262 1992 88 EP MM TINA 1992-10-07 15:00:00 TS 23.3924 -132.520 main 1691 1691 P_____________ EP221992 23.3924 -132.520 TD 30 1007 -1 3 270
1992262N10262 1992 88 EP MM TINA 1992-10-07 18:00:00 TS 23.4000 -132.700 30 1008 hurdat_epa main 1704 1704 O_____________ hurdat_epa EP221992 23.4000 -132.700 TD 30 1008 -1 4 284
1992262N10262 1992 88 EP MM TINA 1992-10-07 21:00:00 TS 23.4925 -132.970 main 1716 1714 P_____________ EP221992 23.4925 -132.970 TD 30 1008 -1 6 290
1992262N10262 1992 88 EP MM TINA 1992-10-08 00:00:00 TS 23.6000 -133.300 30 1008 hurdat_epa main 1728 1728 O_____________ hurdat_epa EP221992 23.6000 -133.300 TD 30 1008 -1 6 286
1992262N10262 1992 88 EP MM TINA 1992-10-08 03:00:00 TS 23.6650 -133.643 main 1741 1741 P_____________ EP221992 23.6650 -133.643 TD 30 1008 -1 6 279
1992262N10262 1992 88 EP MM TINA 1992-10-08 06:00:00 TS 23.7000 -134.000 30 1009 hurdat_epa main 1769 1769 O_____________ hurdat_epa EP221992 23.7000 -134.000 TD 30 1009 -1 6 273
1992262N10262 1992 88 EP MM TINA 1992-10-08 09:00:00 TS 23.6998 -134.335 main 1791 1791 P_____________ EP221992 23.6998 -134.335 TD 30 1009 -1 6 270
1992262N10262 1992 88 EP MM TINA 1992-10-08 12:00:00 TS 23.7000 -134.700 30 1009 hurdat_epa main 1820 1820 O_____________ hurdat_epa EP221992 23.7000 -134.700 TD 30 1009 -1 7 274
1992262N10262 1992 88 EP MM TINA 1992-10-08 15:00:00 TS 23.7499 -135.127 main 1849 1849 P_____________ EP221992 23.7499 -135.127 TD 30 1009 -1 8 277
1992262N10262 1992 88 EP MM TINA 1992-10-08 18:00:00 TS 23.8000 -135.600 30 1009 hurdat_epa main 1879 1879 O_____________ hurdat_epa EP221992 23.8000 -135.600 TD 30 1009 -1 9 274
1992262N10262 1992 88 EP MM TINA 1992-10-08 21:00:00 TS 23.8147 -136.077 main 1917 1917 P_____________ EP221992 23.8147 -136.077 TD 30 1009 -1 9 270
1992262N10262 1992 88 EP MM TINA 1992-10-09 00:00:00 TS 23.8000 -136.600 30 1010 hurdat_epa main 1939 1877 O_____________ hurdat_epa EP221992 23.8000 -136.600 TD 30 1010 -1 10 266
1992262N10262 1992 88 EP MM TINA 1992-10-09 03:00:00 TS 23.7424 -137.185 main 1877 1817 P_____________ EP221992 23.7424 -137.185 TD 30 1010 -1 11 265
1992262N10262 1992 88 EP MM TINA 1992-10-09 06:00:00 TS 23.7000 -137.800 30 1010 hurdat_epa main 1817 1757 O_____________ hurdat_epa EP221992 23.7000 -137.800 TD 30 1010 -1 11 269
1992262N10262 1992 88 EP MM TINA 1992-10-09 09:00:00 TS 23.7274 -138.407 main 1757 1700 P_____________ EP221992 23.7274 -138.407 TD 30 1010 -1 11 275
1992262N10262 1992 88 EP MM TINA 1992-10-09 12:00:00 TS 23.8000 -139.000 30 1010 hurdat_epa main 1700 1653 O_____________ hurdat_epa EP221992 23.8000 -139.000 TD 30 1010 -1 11 278
1992262N10262 1992 88 EP MM TINA 1992-10-09 15:00:00 TS 23.8699 -139.573 main 1644 1597 P_____________ EP221992 23.8699 -139.573 TD 30 1010 -1 10 281
1992262N10262 1992 88 EP CP TINA 1992-10-09 18:00:00 TS 24.0000 -140.100 30 1010 hurdat_epa main 1597 1565 O_____________ hurdat_epa EP221992 24.0000 -140.100 TD 30 1010 -1 10 291
1992262N10262 1992 88 EP CP TINA 1992-10-09 21:00:00 TS 24.2084 -140.562 main 1555 1527 P_____________ EP221992 24.2047 -140.565 TD 27 1010 -1 10 301
1992262N10262 1992 88 EP CP TINA 1992-10-10 00:00:00 TS 24.5000 -141.000 25 1011 hurdat_epa main 1527 1500 O_____________ hurdat_epa EP221992 24.5000 -141.000 TD 25 1011 -1 10 308
1992262N10262 1992 88 EP CP TINA 1992-10-10 03:00:00 TS 24.8476 -141.473 main 1490 1470 P_____________ EP221992 24.8476 -141.473 TD 25 1011 -1 11 314
1992262N10262 1992 88 EP CP TINA 1992-10-10 06:00:00 TS 25.3000 -141.900 25 1011 hurdat_epa main 1474 1465 O_____________ hurdat_epa EP221992 25.3000 -141.900 TD 25 1011 -1 12 326
1992262N10262 1992 88 EP CP TINA 1992-10-10 09:00:00 TS 25.8774 -142.238 main 1475 1466 P_____________ EP221992 25.8774 -142.238 TD 25 1011 -1 13 336
1992262N10262 1992 88 EP CP TINA 1992-10-10 12:00:00 TS 26.5000 -142.500 25 1011 hurdat_epa main 1480 1477 O_____________ hurdat_epa EP221992 26.5000 -142.500 TD 25 1011 -1 13 339
1992262N10262 1992 88 EP CP TINA 1992-10-10 15:00:00 TS 27.0425 -142.745 main 1491 1488 P_____________ EP221992 27.0425 -142.745 TD 25 1011 -1 12 342
1992262N10262 1992 88 EP CP TINA 1992-10-10 18:00:00 TS 27.6000 -142.900 25 1011 hurdat_epa main 1508 1508 O_____________ hurdat_epa EP221992 27.6000 -142.900 TD 25 1011 -1 12 352
1992262N10262 1992 88 EP CP TINA 1992-10-10 21:00:00 TS 28.2425 -142.923 main 1545 1545 P_____________ EP221992 28.2425 -142.923 TD 25 1011 -1 13 1
1992262N10262 1992 88 EP CP TINA 1992-10-11 00:00:00 TS 28.9000 -142.900 25 1012 hurdat_epa main 1590 1590 O_____________ hurdat_epa EP221992 28.9000 -142.900 TD 25 1012 -1 13 0
1992262N10262 1992 88 EP CP TINA 1992-10-11 03:00:00 TS 29.4925 -142.950 main 1631 1623 P_____________ EP221992 29.4925 -142.950 TD 25 1012 -1 12 356
1992262N10262 1992 88 EP CP TINA 1992-10-11 06:00:00 TS 30.1000 -143.000 25 1012 hurdat_epa main 1665 1665 O_____________ hurdat_epa EP221992 30.1000 -143.000 TD 25 1012 -1 13 357
1992262N10262 1992 88 EP CP TINA 1992-10-11 09:00:00 TS 30.7775 -143.008 main 1711 1711 P_____________ EP221992 30.7775 -143.008 TD 25 1012 -1 14 0
1992262N10262 1992 88 EP CP TINA 1992-10-11 12:00:00 TS 31.5000 -143.000 25 1012 hurdat_epa main 1760 1760 O_____________ hurdat_epa EP221992 31.5000 -143.000 TD 25 1012 -1 15 1
1992262N10262 1992 88 EP CP TINA 1992-10-11 15:00:00 TS 32.2450 -142.997 main 1811 1811 P_____________ EP221992 32.2450 -142.997 TD 22 1012 -1 15 0
1992262N10262 1992 88 EP CP TINA 1992-10-11 18:00:00 TS 33.0000 -143.000 20 1013 hurdat_epa main 1839 O_____________ hurdat_epa EP221992 33.0000 -143.000 TD 20 1013 -1 15 0

IBTrACS Databaseについて

本データベースは、米国NOAAが公開する1842年以降の世界の熱帯低気圧のベストトラックデータアーカイブInternational Best Track Archive for Climate Stewardship (IBTrACS)を、ウェブで閲覧しやすい形式に変換したものです。

最終更新日:2021-11-26